Time;durP1;ratioP1;P1;durP2;ratioP2;P2;SDS_P1;SDS_P2;PMS_P1;PMS_P2;Temp;Humidity;BMP_temperature;BMP_pressure;BME280_temperature;BME280_humidity;BME280_pressure;Samples;Min_cycle;Max_cycle;Signal;HPM_P1;HPM_P2
2023/11/22 00:02:06;;;;;;;;;;;;;;;-0.31;100.00;102173.13;5029266;28;19926;-83
2023/11/22 00:04:39;;;;;;;;;;;;;;;-0.33;100.00;102180.50;5028771;28;19926;-84
2023/11/22 00:07:12;;;;;;;;;;;;;;;-0.29;100.00;102178.31;5025552;28;19925;-83
2023/11/22 00:09:47;;;;;;;;;;;;;;;-0.20;100.00;102183.47;5047247;28;19952;-82
2023/11/22 00:12:21;;;;;;;;;;;;;;;-0.21;100.00;102184.50;5020821;28;19932;-83
2023/11/22 00:14:54;;;;;;;;;;;;;;;-0.14;100.00;102176.59;5024835;28;19948;-83
2023/11/22 00:17:24;;;;;;;;;;;;;;;-0.19;100.00;102166.41;5034267;28;19948;-83
2023/11/22 00:19:57;;;;;;;;;;;;;;;-0.23;100.00;102165.09;5025329;28;19926;-83
2023/11/22 00:22:32;;;;;;;;;;;;;;;-0.28;100.00;102174.63;5028217;28;19925;-82
2023/11/22 00:25:05;;;;;;;;;;;;;;;-0.31;100.00;102185.69;5021720;28;19925;-84
2023/11/22 00:27:40;;;;;;;;;;;;;;;-0.37;100.00;102187.22;5031739;28;19932;-84
2023/11/22 00:30:09;;;;;;;;;;;;;;;-0.19;100.00;102185.16;5030553;28;19925;-83
2023/11/22 00:32:37;;;;;;;;;;;;;;;-0.18;100.00;102176.13;5030468;28;19925;-83
2023/11/22 00:35:10;;;;;;;;;;;;;;;-0.10;100.00;102182.44;5036465;28;20443;-83
2023/11/22 00:37:43;;;;;;;;;;;;;;;-0.12;100.00;102174.59;5032115;28;19933;-83
2023/11/22 00:40:11;;;;;;;;;;;;;;;-0.20;100.00;102166.59;5031800;28;19933;-84
2023/11/22 00:42:42;;;;;;;;;;;;;;;-0.37;100.00;102171.97;5031056;28;20377;-83
2023/11/22 00:45:10;;;;;;;;;;;;;;;-0.40;100.00;102177.69;5033567;28;20048;-83
2023/11/22 00:47:43;;;;;;;;;;;;;;;-0.33;100.00;102176.97;5032027;28;19925;-85
2023/11/22 00:50:11;;;;;;;;;;;;;;;-0.28;100.00;102182.66;5028323;28;19929;-85
2023/11/22 00:52:45;;;;;;;;;;;;;;;-0.38;100.00;102182.84;5028316;28;19948;-84
2023/11/22 00:55:13;;;;;;;;;;;;;;;-0.39;100.00;102187.38;5024722;28;19925;-83
2023/11/22 00:57:42;;;;;;;;;;;;;;;-0.41;100.00;102202.75;5032028;28;20267;-84
2023/11/22 01:00:11;;;;;;;;;;;;;;;-0.49;100.00;102204.59;5031362;28;19932;-84
2023/11/22 01:02:39;;;;;;;;;;;;;;;-0.59;100.00;102213.63;5030199;28;20398;-84
2023/11/22 01:05:10;;;;;;;;;;;;;;;-0.50;100.00;102221.66;5030918;28;19925;-84
2023/11/22 01:07:43;;;;;;;;;;;;;;;-0.54;100.00;102223.81;5030613;28;19925;-83
2023/11/22 01:10:16;;;;;;;;;;;;;;;-0.61;100.00;102230.84;5021107;28;20310;-83
2023/11/22 01:12:51;;;;;;;;;;;;;;;-0.63;100.00;102239.03;5025977;28;19933;-83
2023/11/22 01:15:24;;;;;;;;;;;;;;;-0.65;100.00;102235.66;5042572;28;19935;-85
2023/11/22 01:17:58;;;;;;;;;;;;;;;-0.63;100.00;102235.53;5020877;28;19925;-84
2023/11/22 01:20:31;;;;;;;;;;;;;;;-0.69;100.00;102234.38;5039428;28;19932;-84
2023/11/22 01:22:59;;;;;;;;;;;;;;;-0.70;100.00;102227.34;5031139;28;19925;-83
2023/11/22 01:25:32;;;;;;;;;;;;;;;-0.69;100.00;102232.50;5030965;28;19926;-83
2023/11/22 01:28:07;;;;;;;;;;;;;;;-0.69;100.00;102221.00;5026352;28;19929;-83
2023/11/22 01:30:36;;;;;;;;;;;;;;;-0.70;100.00;102224.66;5035410;28;19932;-85
2023/11/22 01:33:04;;;;;;;;;;;;;;;-0.63;100.00;102228.34;5022821;28;19925;-84
2023/11/22 01:35:38;;;;;;;;;;;;;;;-0.69;100.00;102210.31;5028944;28;19929;-83
2023/11/22 01:38:06;;;;;;;;;;;;;;;-0.76;100.00;102219.97;5029222;28;19925;-83
2023/11/22 01:40:34;;;;;;;;;;;;;;;-0.82;100.00;102223.31;5013070;28;19932;-84
2023/11/22 01:43:03;;;;;;;;;;;;;;;-0.86;100.00;102223.66;5026707;28;20131;-84
2023/11/22 01:45:38;;;;;;;;;;;;;;;-0.81;100.00;102225.81;5029193;28;19925;-83
2023/11/22 01:48:11;;;;;;;;;;;;;;;-0.84;100.00;102231.50;5027310;28;19925;-85
2023/11/22 01:50:44;;;;;;;;;;;;;;;-0.84;100.00;102231.50;5029313;28;20019;-85
2023/11/22 01:53:18;;;;;;;;;;;;;;;-0.89;100.00;102229.31;5030826;28;19929;-85
2023/11/22 01:55:51;;;;;;;;;;;;;;;-0.86;100.00;102231.69;5026318;28;19925;-83
2023/11/22 01:58:19;;;;;;;;;;;;;;;-0.87;100.00;102230.00;5024606;28;20517;-83
2023/11/22 02:00:50;;;;;;;;;;;;;;;-0.84;100.00;102231.50;5030421;28;19925;-84
2023/11/22 02:03:23;;;;;;;;;;;;;;;-0.86;100.00;102234.34;5024227;28;19932;-84
2023/11/22 02:05:51;;;;;;;;;;;;;;;-0.83;100.00;102235.84;5043076;28;19926;-84
2023/11/22 02:08:19;;;;;;;;;;;;;;;-0.92;100.00;102244.88;5022940;28;19925;-83
2023/11/22 02:10:57;;;;;;;;;;;;;;;-0.88;100.00;102248.88;5034133;28;19932;-84
2023/11/22 02:13:30;;;;;;;;;;;;;;;-0.83;100.00;102251.88;5035691;28;20558;-85
2023/11/22 02:16:05;;;;;;;;;;;;;;;-0.92;100.00;102252.88;5034803;28;19925;-83
2023/11/22 02:18:38;;;;;;;;;;;;;;;-0.87;100.00;102250.53;5019258;28;19930;-84
2023/11/22 02:21:07;;;;;;;;;;;;;;;-0.86;100.00;102242.38;5035379;28;20038;-83
2023/11/22 02:23:42;;;;;;;;;;;;;;;-0.88;100.00;102243.53;5024431;28;19925;-84
2023/11/22 02:26:18;;;;;;;;;;;;;;;-0.92;100.00;102252.88;5045400;28;19932;-82
2023/11/22 02:28:51;;;;;;;;;;;;;;;-0.90;100.00;102254.41;5028173;28;19925;-84
2023/11/22 02:31:24;;;;;;;;;;;;;;;-0.79;100.00;102252.38;5030483;28;19933;-84
2023/11/22 02:33:56;;;;;;;;;;;;;;;-0.83;100.00;102267.91;5030576;28;19925;-84
2023/11/22 02:36:25;;;;;;;;;;;;;;;-0.71;100.00;102266.59;5032487;28;20615;-83
2023/11/22 02:38:59;;;;;;;;;;;;;;;-0.78;100.00;102264.75;5029449;28;19925;-83
2023/11/22 02:41:32;;;;;;;;;;;;;;;-0.82;100.00;102274.09;5031473;28;19936;-84
2023/11/22 02:44:00;;;;;;;;;;;;;;;-0.90;100.00;102273.09;5034658;28;19925;-83
2023/11/22 02:46:29;;;;;;;;;;;;;;;-0.93;100.00;102267.22;5033035;28;19930;-84
2023/11/22 02:48:56;;;;;;;;;;;;;;;-0.82;100.00;102285.63;5031212;28;19925;-84
2023/11/22 02:51:30;;;;;;;;;;;;;;;-0.87;100.00;102279.94;5029045;28;19925;-85
2023/11/22 02:54:00;;;;;;;;;;;;;;;-0.93;100.00;102297.47;5021989;28;19936;-84
2023/11/22 02:56:28;;;;;;;;;;;;;;;-1.02;100.00;102293.13;5033351;28;20417;-83
2023/11/22 02:58:55;;;;;;;;;;;;;;;-1.05;100.00;102299.63;5027995;28;19929;-84
2023/11/22 03:01:29;;;;;;;;;;;;;;;-1.06;100.00;102310.47;5033723;28;19929;-84
2023/11/22 03:04:02;;;;;;;;;;;;;;;-1.08;100.00;102307.09;5019652;28;19925;-84
2023/11/22 03:06:37;;;;;;;;;;;;;;;-1.10;100.00;102315.28;5022748;28;19926;-85
2023/11/22 03:09:13;;;;;;;;;;;;;;;-1.06;100.00;102321.16;5018838;28;19925;-83
2023/11/22 03:11:41;;;;;;;;;;;;;;;-1.10;100.00;102307.28;5030410;28;19932;-86
2023/11/22 03:14:09;;;;;;;;;;;;;;;-1.09;100.00;102318.78;5038624;28;19936;-83
2023/11/22 03:16:42;;;;;;;;;;;;;;;-1.07;100.00;102317.63;5030521;28;19925;-84
2023/11/22 03:19:13;;;;;;;;;;;;;;;-1.16;100.00;102315.09;5023611;28;19990;-84
2023/11/22 03:21:41;;;;;;;;;;;;;;;-1.08;100.00;102339.16;5028546;28;19932;-85
2023/11/22 03:24:09;;;;;;;;;;;;;;;-1.15;100.00;102325.63;5033585;28;19929;-84
2023/11/22 03:26:39;;;;;;;;;;;;;;;-1.16;100.00;102325.78;5035277;28;19932;-87
2023/11/22 03:29:07;;;;;;;;;;;;;;;-1.07;100.00;102322.16;5042323;28;19925;-85
2023/11/22 03:31:40;;;;;;;;;;;;;;;-1.14;100.00;102311.28;5029575;28;19933;-84
2023/11/22 03:34:08;;;;;;;;;;;;;;;-1.09;100.00;102305.44;5023957;28;19940;-85
2023/11/22 03:36:36;;;;;;;;;;;;;;;-0.98;100.00;102313.16;5029992;28;19929;-84
2023/11/22 03:39:10;;;;;;;;;;;;;;;-0.98;100.00;102315.00;5023181;28;19929;-84
2023/11/22 03:41:39;;;;;;;;;;;;;;;-1.05;100.00;102321.00;5028114;28;19925;-86
2023/11/22 03:44:12;;;;;;;;;;;;;;;-1.12;100.00;102314.63;5019608;28;19925;-85
2023/11/22 03:46:45;;;;;;;;;;;;;;;-1.00;100.00;102331.19;5028801;28;19932;-85
2023/11/22 03:49:18;;;;;;;;;;;;;;;-0.92;100.00;102338.41;5038312;28;19931;-85
2023/11/22 03:51:51;;;;;;;;;;;;;;;-0.93;100.00;102334.88;5034515;28;19932;-85
2023/11/22 03:54:24;;;;;;;;;;;;;;;-0.87;100.00;102342.25;5031502;28;20442;-84
2023/11/22 03:56:53;;;;;;;;;;;;;;;-0.88;100.00;102345.94;5044684;28;19925;-83
2023/11/22 03:59:26;;;;;;;;;;;;;;;-0.87;100.00;102339.59;5032269;28;19925;-85
2023/11/22 04:01:59;;;;;;;;;;;;;;;-0.86;100.00;102335.06;5027168;28;20012;-85
2023/11/22 04:04:32;;;;;;;;;;;;;;;-0.87;100.00;102336.91;5032830;28;19929;-84
2023/11/22 04:07:05;;;;;;;;;;;;;;;-0.82;100.00;102344.44;5044988;28;19925;-85
2023/11/22 04:09:33;;;;;;;;;;;;;;;-0.92;100.00;102335.72;5026615;28;19925;-85
2023/11/22 04:12:08;;;;;;;;;;;;;;;-0.81;100.00;102342.63;5031591;28;19925;-84
2023/11/22 04:14:36;;;;;;;;;;;;;;;-0.76;100.00;102343.81;5030325;28;19925;-84
2023/11/22 04:17:09;;;;;;;;;;;;;;;-0.81;100.00;102362.16;5032058;28;19933;-85
2023/11/22 04:19:42;;;;;;;;;;;;;;;-0.83;100.00;102357.97;5031787;28;19932;-85
2023/11/22 04:22:15;;;;;;;;;;;;;;;-0.80;100.00;102355.81;5026896;28;19925;-84
2023/11/22 04:24:48;;;;;;;;;;;;;;;-0.84;100.00;102351.78;5029478;28;20282;-85
2023/11/22 04:27:17;;;;;;;;;;;;;;;-0.91;100.00;102345.41;5018541;28;20298;-85
2023/11/22 04:29:45;;;;;;;;;;;;;;;-0.93;100.00;102342.91;5032636;28;19926;-83
2023/11/22 04:32:13;;;;;;;;;;;;;;;-0.89;100.00;102349.59;5021595;28;19925;-84
2023/11/22 04:34:46;;;;;;;;;;;;;;;-0.95;100.00;102334.22;5032133;28;19925;-85
2023/11/22 04:37:19;;;;;;;;;;;;;;;-1.05;100.00;102333.50;5035939;28;19925;-84
2023/11/22 04:39:52;;;;;;;;;;;;;;;-1.01;100.00;102336.69;5029936;28;19932;-83
2023/11/22 04:42:26;;;;;;;;;;;;;;;-0.97;100.00;102338.03;5031383;28;20295;-84
2023/11/22 04:44:54;;;;;;;;;;;;;;;-1.02;100.00;102333.19;5040605;28;19925;-85
2023/11/22 04:47:27;;;;;;;;;;;;;;;-1.08;100.00;102340.03;5020321;28;19929;-84
2023/11/22 04:50:00;;;;;;;;;;;;;;;-1.07;100.00;102339.00;5020740;28;19936;-85
2023/11/22 04:52:28;;;;;;;;;;;;;;;-1.01;100.00;102339.38;5033228;28;19925;-84
2023/11/22 04:55:01;;;;;;;;;;;;;;;-1.06;100.00;102350.56;5026468;28;19932;-85
2023/11/22 04:57:36;;;;;;;;;;;;;;;-1.14;100.00;102343.31;5030153;28;20305;-85
2023/11/22 05:00:09;;;;;;;;;;;;;;;-1.11;100.00;102334.16;5030798;28;19925;-84
2023/11/22 05:02:37;;;;;;;;;;;;;;;-1.13;100.00;102328.13;5016109;28;19929;-84
2023/11/22 05:05:05;;;;;;;;;;;;;;;-1.23;100.00;102338.94;5031321;28;19928;-84
2023/11/22 05:07:38;;;;;;;;;;;;;;;-1.29;100.00;102326.25;5031598;28;19940;-85
2023/11/22 05:10:11;;;;;;;;;;;;;;;-1.27;100.00;102330.44;5028951;28;19940;-84
2023/11/22 05:12:40;;;;;;;;;;;;;;;-1.28;100.00;102327.94;5034182;28;19940;-85
2023/11/22 05:15:14;;;;;;;;;;;;;;;-1.34;100.00;102336.56;5031091;28;19925;-85
2023/11/22 05:17:42;;;;;;;;;;;;;;;-1.29;100.00;102344.94;5031287;28;19929;-84
2023/11/22 05:20:10;;;;;;;;;;;;;;;-1.35;100.00;102340.22;5030668;28;20285;-84
2023/11/22 05:22:38;;;;;;;;;;;;;;;-1.30;100.00;102349.44;5028616;28;19925;-85
2023/11/22 05:25:07;;;;;;;;;;;;;;;-1.34;100.00;102350.78;5029146;28;19925;-84
2023/11/22 05:27:35;;;;;;;;;;;;;;;-1.25;100.00;102356.97;5030032;28;19925;-84
2023/11/22 05:30:05;;;;;;;;;;;;;;;-1.33;100.00;102363.09;5031640;28;20317;-85
2023/11/22 05:32:33;;;;;;;;;;;;;;;-1.28;100.00;102360.81;5029034;28;19925;-85
2023/11/22 05:35:01;;;;;;;;;;;;;;;-1.23;100.00;102371.00;5016552;28;19929;-84
2023/11/22 05:37:34;;;;;;;;;;;;;;;-1.31;100.00;102378.97;5020835;28;21650;-83
2023/11/22 05:40:02;;;;;;;;;;;;;;;-1.34;100.00;102377.47;5025872;28;19944;-84
2023/11/22 05:42:35;;;;;;;;;;;;;;;-1.35;100.00;102386.47;5047816;28;19926;-84
2023/11/22 05:45:05;;;;;;;;;;;;;;;-1.39;100.00;102385.13;5034531;28;19932;-84
2023/11/22 05:47:33;;;;;;;;;;;;;;;-1.33;100.00;102391.66;5030799;28;19925;-85
2023/11/22 05:50:01;;;;;;;;;;;;;;;-1.42;100.00;102394.28;5029114;28;19930;-84
2023/11/22 05:52:29;;;;;;;;;;;;;;;-1.49;100.00;102390.56;5032258;28;19925;-84
2023/11/22 05:55:03;;;;;;;;;;;;;;;-1.50;100.00;102404.09;5031340;28;19951;-84
2023/11/22 05:57:36;;;;;;;;;;;;;;;-1.48;100.00;102408.25;5032521;28;19925;-84
2023/11/22 06:00:12;;;;;;;;;;;;;;;-1.44;100.00;102411.44;5043361;28;19936;-84
2023/11/22 06:02:45;;;;;;;;;;;;;;;-1.45;100.00;102415.13;5032799;28;19925;-85
2023/11/22 06:05:18;;;;;;;;;;;;;;;-1.54;100.00;102411.56;5042816;28;19929;-85
2023/11/22 06:07:51;;;;;;;;;;;;;;;-1.53;100.00;102410.56;5033373;28;19933;-84
2023/11/22 06:10:24;;;;;;;;;;;;;;;-1.49;100.00;102411.94;5042005;28;20489;-85
2023/11/22 06:12:52;;;;;;;;;;;;;;;-1.56;100.00;102414.41;5045033;28;19944;-84
2023/11/22 06:15:22;;;;;;;;;;;;;;;-1.55;100.00;102410.72;5029479;28;19926;-84
2023/11/22 06:17:50;;;;;;;;;;;;;;;-1.52;100.00;102408.72;5024719;28;19933;-85
2023/11/22 06:20:18;;;;;;;;;;;;;;;-1.56;100.00;102397.50;5032188;28;20400;-83
2023/11/22 06:22:51;;;;;;;;;;;;;;;-1.57;100.00;102387.84;5029712;28;19933;-84
2023/11/22 06:25:19;;;;;;;;;;;;;;;-1.67;100.00;102381.75;5033787;28;20523;-84
2023/11/22 06:27:52;;;;;;;;;;;;;;;-1.59;100.00;102385.34;5035632;28;20163;-85
2023/11/22 06:30:26;;;;;;;;;;;;;;;-1.62;100.00;102387.47;5050012;28;20452;-83
2023/11/22 06:32:55;;;;;;;;;;;;;;;-1.58;100.00;102395.00;5033921;28;19925;-83
2023/11/22 06:35:28;;;;;;;;;;;;;;;-1.50;100.00;102390.72;5033702;28;19925;-83
2023/11/22 06:38:01;;;;;;;;;;;;;;;-1.50;100.00;102385.41;5031121;28;19926;-84
2023/11/22 06:40:29;;;;;;;;;;;;;;;-1.54;100.00;102374.19;5031420;28;19934;-84
2023/11/22 06:42:57;;;;;;;;;;;;;;;-1.60;100.00;102361.44;5023927;28;19925;-83
2023/11/22 06:45:32;;;;;;;;;;;;;;;-1.59;100.00;102352.44;5033603;28;19925;-83
2023/11/22 06:48:00;;;;;;;;;;;;;;;-1.63;100.00;102345.75;5028381;28;19932;-83
2023/11/22 06:50:28;;;;;;;;;;;;;;;-1.58;100.00;102348.78;5032001;28;19979;-84
2023/11/22 06:52:56;;;;;;;;;;;;;;;-1.56;100.00;102355.66;5040781;28;19929;-84
2023/11/22 06:55:30;;;;;;;;;;;;;;;-1.55;100.00;102367.16;5043559;28;20310;-84
2023/11/22 06:57:59;;;;;;;;;;;;;;;-1.64;100.00;102366.28;5035820;28;19932;-85
2023/11/22 07:00:27;;;;;;;;;;;;;;;-1.59;100.00;102376.47;5045000;28;19925;-83
2023/11/22 07:03:02;;;;;;;;;;;;;;;-1.49;100.00;102373.69;5030590;28;19925;-83
2023/11/22 07:05:30;;;;;;;;;;;;;;;-1.51;100.00;102379.19;5029363;28;20550;-83
2023/11/22 07:07:58;;;;;;;;;;;;;;;-1.47;100.00;102377.88;5051920;28;19934;-83
2023/11/22 07:10:26;;;;;;;;;;;;;;;-1.44;100.00;102366.06;5042419;28;19926;-83
2023/11/22 07:12:55;;;;;;;;;;;;;;;-1.34;100.00;102356.13;5029067;28;19925;-84
2023/11/22 07:15:29;;;;;;;;;;;;;;;-1.28;100.00;102351.97;5028200;28;19933;-83
2023/11/22 07:18:03;;;;;;;;;;;;;;;-1.34;100.00;102347.25;5025877;28;19925;-83
2023/11/22 07:20:31;;;;;;;;;;;;;;;-1.25;100.00;102365.81;5042106;28;19925;-83
2023/11/22 07:23:00;;;;;;;;;;;;;;;-1.20;100.00;102374.19;5032215;28;20374;-83
2023/11/22 07:25:29;;;;;;;;;;;;;;;-1.21;100.00;102377.03;5033002;28;19948;-82
2023/11/22 07:28:02;;;;;;;;;;;;;;;-1.12;100.00;102383.25;5029590;28;20307;-82
2023/11/22 07:30:32;;;;;;;;;;;;;;;-1.08;100.00;102373.91;5032834;28;19929;-83
2023/11/22 07:33:07;;;;;;;;;;;;;;;-1.10;100.00;102382.09;5018077;28;19932;-83
2023/11/22 07:35:40;;;;;;;;;;;;;;;-1.05;100.00;102376.25;5031037;28;19932;-84
2023/11/22 07:38:10;;;;;;;;;;;;;;;-1.04;100.00;102377.94;5024304;28;19933;-83
2023/11/22 07:40:43;;;;;;;;;;;;;;;-1.00;100.00;102384.63;5026399;28;19937;-84
2023/11/22 07:43:16;;;;;;;;;;;;;;;-1.03;100.00;102385.78;5029116;28;19925;-83
2023/11/22 07:45:50;;;;;;;;;;;;;;;-0.97;100.00;102392.31;5035150;28;19932;-83
2023/11/22 07:48:20;;;;;;;;;;;;;;;-0.95;100.00;102394.84;5044138;28;19936;-83
2023/11/22 07:50:49;;;;;;;;;;;;;;;-0.96;100.00;102403.88;5025552;28;19932;-84
2023/11/22 07:53:22;;;;;;;;;;;;;;;-0.92;100.00;102406.03;5036413;28;19925;-83
2023/11/22 07:55:56;;;;;;;;;;;;;;;-0.82;100.00;102405.91;5027149;28;19929;-83
2023/11/22 07:58:30;;;;;;;;;;;;;;;-0.85;100.00;102414.28;5024281;28;19925;-82
2023/11/22 08:01:05;;;;;;;;;;;;;;;-0.80;100.00;102422.66;5030451;28;20586;-84
2023/11/22 08:03:36;;;;;;;;;;;;;;;-0.76;100.00;102421.31;5029374;28;20666;-80
2023/11/22 08:06:09;;;;;;;;;;;;;;;-0.72;100.00;102445.88;5025807;28;19936;-83
2023/11/22 08:08:39;;;;;;;;;;;;;;;-0.72;100.00;102432.53;5019171;28;19926;-83
2023/11/22 08:11:14;;;;;;;;;;;;;;;-0.66;100.00;102428.34;5026175;28;20390;-83
2023/11/22 08:13:44;;;;;;;;;;;;;;;-0.64;100.00;102431.72;5021830;28;20522;-82
2023/11/22 08:16:19;;;;;;;;;;;;;;;-0.60;100.00;102433.91;5019550;28;19933;-83
2023/11/22 08:18:58;;;;;;;;;;;;;;;-0.65;100.00;102422.84;5006819;28;20536;-85
2023/11/22 08:21:26;;;;;;;;;;;;;;;-0.63;100.00;102415.50;5025671;28;19932;-84
2023/11/22 08:23:54;;;;;;;;;;;;;;;-0.62;100.00;102427.03;5021122;28;19928;-86
2023/11/22 08:26:24;;;;;;;;;;;;;;;-0.62;100.00;102402.97;5008351;28;19940;-87
2023/11/22 08:28:57;;;;;;;;;;;;;;;-0.59;100.00;102390.13;5011755;28;20250;-85
2023/11/22 08:31:26;;;;;;;;;;;;;;;-0.50;100.00;102388.28;5018662;28;21682;-83
2023/11/22 08:33:53;;;;;;;;;;;;;;;-0.43;100.00;102391.16;5014607;28;20840;-84
2023/11/22 08:36:24;;;;;;;;;;;;;;;-0.46;100.00;102388.81;5011451;28;19944;-84
2023/11/22 08:38:52;;;;;;;;;;;;;;;-0.40;100.00;102388.13;5009644;28;19933;-85
2023/11/22 08:41:21;;;;;;;;;;;;;;;-0.38;100.00;102410.22;5023420;28;19925;-84
2023/11/22 08:43:49;;;;;;;;;;;;;;;-0.32;100.00;102411.41;5008604;28;20020;-86
2023/11/22 08:46:17;;;;;;;;;;;;;;;-0.28;100.00;102400.19;5012643;28;20266;-85
2023/11/22 08:48:45;;;;;;;;;;;;;;;-0.29;100.00;102395.88;5014004;28;19933;-84
2023/11/22 08:51:15;;;;;;;;;;;;;;;-0.20;100.00;102384.16;5007861;28;19936;-82
2023/11/22 08:53:44;;;;;;;;;;;;;;;-0.16;100.00;102395.38;5008470;28;20389;-86
2023/11/22 08:56:12;;;;;;;;;;;;;;;-0.19;100.00;102396.53;5029882;28;20062;-83
2023/11/22 08:58:45;;;;;;;;;;;;;;;-0.13;100.00;102392.34;5009739;28;19933;-84
2023/11/22 09:01:18;;;;;;;;;;;;;;;-0.09;100.00;102407.09;5009452;28;19933;-87
2023/11/22 09:03:47;;;;;;;;;;;;;;;-0.05;100.00;102402.25;5006730;28;19944;-85
2023/11/22 09:06:15;;;;;;;;;;;;;;;-0.01;100.00;102417.78;5006074;28;20313;-87
2023/11/22 09:08:45;;;;;;;;;;;;;;;0.03;100.00;102423.66;5009621;28;24363;-85
2023/11/22 09:11:22;;;;;;;;;;;;;;;0.07;100.00;102397.38;5011290;28;19933;-86
2023/11/22 09:13:50;;;;;;;;;;;;;;;0.09;100.00;102403.41;5019051;28;19937;-83
2023/11/22 09:16:19;;;;;;;;;;;;;;;0.19;100.00;102419.31;5006749;28;20971;-88
2023/11/22 09:18:54;;;;;;;;;;;;;;;0.17;100.00;102388.19;5016289;28;19940;-87
2023/11/22 09:21:22;;;;;;;;;;;;;;;0.21;100.00;102391.38;4986612;28;19933;-82
2023/11/22 09:23:51;;;;;;;;;;;;;;;0.24;100.00;102408.94;5007002;28;21277;-88
2023/11/22 09:26:26;;;;;;;;;;;;;;;0.29;100.00;102407.44;5007396;28;20387;-88
2023/11/22 09:28:55;;;;;;;;;;;;;;;0.34;100.00;102402.38;5009934;28;19940;-87
2023/11/22 09:31:28;;;;;;;;;;;;;;;0.29;100.00;102388.69;5009059;28;20677;-87
2023/11/22 09:34:03;;;;;;;;;;;;;;;0.36;100.00;102398.69;5018206;28;19939;-85
2023/11/22 09:36:33;;;;;;;;;;;;;;;0.40;100.00;102425.00;5011175;28;19933;-84
2023/11/22 09:39:08;;;;;;;;;;;;;;;0.46;100.00;102421.63;5007642;28;19937;-88
2023/11/22 09:41:37;;;;;;;;;;;;;;;0.41;100.00;102423.97;5008507;28;19929;-85
2023/11/22 09:44:06;;;;;;;;;;;;;;;0.50;100.00;102425.66;5013183;28;19932;-86
2023/11/22 09:46:34;;;;;;;;;;;;;;;0.56;100.00;102434.84;5025312;28;19933;-88
2023/11/22 09:49:07;;;;;;;;;;;;;;;0.60;100.00;102438.03;5021595;28;19933;-89
2023/11/22 09:51:38;;;;;;;;;;;;;;;0.57;100.00;102438.38;5014905;28;19933;-87
2023/11/22 09:54:11;;;;;;;;;;;;;;;0.63;100.00;102443.03;5008651;28;19933;-89
2023/11/22 09:56:50;;;;;;;;;;;;;;;0.67;100.00;102455.09;5015840;28;19933;-86
2023/11/22 09:59:19;;;;;;;;;;;;;;;0.67;100.00;102453.25;5010301;28;19933;-89
2023/11/22 10:01:48;;;;;;;;;;;;;;;0.71;100.00;102443.03;5013691;28;19932;-90
2023/11/22 10:04:16;;;;;;;;;;;;;;;0.73;100.00;102449.03;5006906;28;19933;-88
2023/11/22 10:06:50;;;;;;;;;;;;;;;0.71;100.00;102443.03;5005562;28;19937;-88
2023/11/22 10:09:19;;;;;;;;;;;;;;;0.73;100.00;102434.81;5008591;28;19932;-87
2023/11/22 10:11:52;;;;;;;;;;;;;;;0.78;100.00;102443.19;5011928;28;20353;-87
2023/11/22 10:14:23;;;;;;;;;;;;;;;0.79;100.00;102451.06;5012643;28;19932;-89
2023/11/22 10:16:58;;;;;;;;;;;;;;;0.81;100.00;102442.84;5007775;28;19943;-88
2023/11/22 10:19:26;;;;;;;;;;;;;;;0.76;100.00;102423.75;4996280;28;19933;-87
2023/11/22 10:22:04;;;;;;;;;;;;;;;0.74;100.00;102423.91;5008319;28;19933;-87
2023/11/22 10:24:34;;;;;;;;;;;;;;;0.84;100.00;102415.69;5009471;28;19944;-84
2023/11/22 10:27:02;;;;;;;;;;;;;;;0.82;100.00;102407.81;5009853;28;20316;-85
2023/11/22 10:29:31;;;;;;;;;;;;;;;0.88;100.00;102406.28;5010263;28;20400;-90
2023/11/22 10:31:58;;;;;;;;;;;;;;;0.92;100.00;102396.06;5009991;28;19944;-86
2023/11/22 10:34:27;;;;;;;;;;;;;;;0.83;100.00;102403.31;5019643;28;20328;-85
2023/11/22 10:36:56;;;;;;;;;;;;;;;0.80;100.00;102396.44;5014050;28;20293;-85
2023/11/22 10:39:26;;;;;;;;;;;;;;;0.85;100.00;102369.13;5020059;28;20341;-88
2023/11/22 10:42:00;;;;;;;;;;;;;;;0.92;100.00;102375.44;5016814;28;19940;-89
2023/11/22 10:44:28;;;;;;;;;;;;;;;0.93;100.00;102369.09;5018650;28;19940;-85
2023/11/22 10:46:56;;;;;;;;;;;;;;;0.87;100.00;102359.06;5010349;28;19932;-86
2023/11/22 10:49:24;;;;;;;;;;;;;;;0.97;100.00;102358.88;5018427;28;19932;-87
2023/11/22 10:51:53;;;;;;;;;;;;;;;1.05;100.00;102353.47;5014230;28;19933;-87
2023/11/22 10:54:24;;;;;;;;;;;;;;;0.91;100.00;102346.13;5020791;28;19933;-87
2023/11/22 10:56:55;;;;;;;;;;;;;;;1.03;100.00;102355.47;5010619;28;19932;-87
2023/11/22 10:59:27;;;;;;;;;;;;;;;1.07;100.00;102346.06;5019705;28;19932;-88
2023/11/22 11:01:58;;;;;;;;;;;;;;;1.17;100.00;102344.00;5011622;28;19948;-87
2023/11/22 11:04:30;;;;;;;;;;;;;;;1.17;100.00;102333.28;5011688;28;19939;-87
2023/11/22 11:07:00;;;;;;;;;;;;;;;1.24;100.00;102329.88;5011335;28;19955;-84
2023/11/22 11:09:32;;;;;;;;;;;;;;;1.26;100.00;102330.56;5010493;28;19932;-89
2023/11/22 11:12:00;;;;;;;;;;;;;;;1.25;100.00;102320.84;5009505;28;19933;-85
2023/11/22 11:14:34;;;;;;;;;;;;;;;1.25;100.00;102312.78;5013290;28;19933;-89
2023/11/22 11:17:02;;;;;;;;;;;;;;;1.39;100.00;102297.78;5029469;28;19933;-85
2023/11/22 11:19:35;;;;;;;;;;;;;;;1.35;100.00;102295.47;4998548;28;19938;-88
2023/11/22 11:22:04;;;;;;;;;;;;;;;1.38;100.00;102299.59;5007268;28;19933;-84
2023/11/22 11:24:39;;;;;;;;;;;;;;;1.49;100.00;102288.47;5010991;28;19944;-87
2023/11/22 11:27:08;;;;;;;;;;;;;;;1.46;100.00;102275.41;5012294;28;19933;-85
2023/11/22 11:29:43;;;;;;;;;;;;;;;1.36;100.00;102256.88;5009584;28;21565;-86
2023/11/22 11:32:11;;;;;;;;;;;;;;;1.46;100.00;102253.13;5012141;28;19940;-88
2023/11/22 11:34:48;;;;;;;;;;;;;;;1.41;100.00;102253.66;5020181;28;19933;-87
2023/11/22 11:37:18;;;;;;;;;;;;;;;1.30;100.00;102235.31;5008232;28;19955;-89
2023/11/22 11:39:46;;;;;;;;;;;;;;;1.28;100.00;102219.38;5008644;28;19933;-88
2023/11/22 11:42:14;;;;;;;;;;;;;;;1.38;100.00;102215.63;5013451;28;19956;-89
2023/11/22 11:45:03;;;;;;;;;;;;;;;1.30;100.00;102213.88;5006831;28;19933;-87
2023/11/22 11:47:36;;;;;;;;;;;;;;;1.33;100.00;102203.59;5005339;28;20610;-88
2023/11/22 11:50:04;;;;;;;;;;;;;;;1.35;100.00;102214.97;5008118;28;19933;-88
2023/11/22 11:52:32;;;;;;;;;;;;;;;1.38;100.00;102204.91;5011276;28;20000;-87
2023/11/22 11:55:00;;;;;;;;;;;;;;;1.43;100.00;102195.28;5008896;28;19932;-87
2023/11/22 11:57:33;;;;;;;;;;;;;;;1.44;100.00;102202.31;5013711;28;19933;-83
2023/11/22 12:00:09;;;;;;;;;;;;;;;1.46;100.00;102194.09;5011531;28;19933;-87
2023/11/22 12:02:40;;;;;;;;;;;;;;;1.47;100.00;102180.50;5006100;28;19949;-84
2023/11/22 12:05:08;;;;;;;;;;;;;;;1.42;100.00;102165.97;5017342;28;19933;-87
2023/11/22 12:07:42;;;;;;;;;;;;;;;1.43;100.00;102154.22;5014012;28;19940;-83
2023/11/22 12:10:11;;;;;;;;;;;;;;;1.49;100.00;102172.25;5028063;28;21704;-83
2023/11/22 12:12:45;;;;;;;;;;;;;;;1.55;100.00;102200.19;5014945;28;19940;-86
2023/11/22 12:15:20;;;;;;;;;;;;;;;1.57;100.00;102223.16;5015966;28;19933;-87
2023/11/22 12:17:49;;;;;;;;;;;;;;;1.61;100.00;102231.69;5010380;28;19940;-83
2023/11/22 12:20:17;;;;;;;;;;;;;;;1.66;100.00;102214.03;5004658;28;19933;-88
2023/11/22 12:22:45;;;;;;;;;;;;;;;1.55;100.00;102202.88;5004277;28;19940;-84
2023/11/22 12:25:14;;;;;;;;;;;;;;;1.59;100.00;102202.34;5011163;28;19935;-85
2023/11/22 12:27:47;;;;;;;;;;;;;;;1.65;100.00;102203.47;5009489;28;19933;-83
2023/11/22 12:30:32;;;;;;;;;;;;;;;1.59;100.00;102197.00;5011680;28;19933;-85
2023/11/22 12:33:03;;;;;;;;;;;;;;;1.62;100.00;102188.56;5009377;28;19936;-83
2023/11/22 12:35:33;;;;;;;;;;;;;;;1.58;100.00;102186.44;5011199;28;19933;-85
2023/11/22 12:38:06;;;;;;;;;;;;;;;1.64;100.00;102178.50;5006715;28;19948;-86
2023/11/22 12:40:44;;;;;;;;;;;;;;;1.66;100.00;102175.63;5011052;28;20316;-86
2023/11/22 12:43:17;;;;;;;;;;;;;;;1.66;100.00;102172.94;5014720;28;19933;-85
2023/11/22 12:45:46;;;;;;;;;;;;;;;1.65;100.00;102155.16;5011884;28;19933;-83
2023/11/22 12:48:21;;;;;;;;;;;;;;;1.59;100.00;102147.84;5007422;28;19940;-83
2023/11/22 12:50:49;;;;;;;;;;;;;;;1.58;100.00;102148.88;5011821;28;19926;-82